Time;durP1;ratioP1;P1;durP2;ratioP2;P2;SDS_P1;SDS_P2;PMS_P1;PMS_P2;Temp;Humidity;BMP_temperature;BMP_pressure;BME280_temperature;BME280_humidity;BME280_pressure;Samples;Min_cycle;Max_cycle;Signal;HPM_P1;HPM_P2
2022/11/27 00:00:04;;;;;;;21.17;11.23;;;7.60;99.90;;;;;;4968936;28;20234;-73
2022/11/27 00:02:31;;;;;;;24.60;11.33;;;7.60;99.90;;;;;;4968848;28;20753;-72
2022/11/27 00:04:58;;;;;;;21.27;11.50;;;7.60;99.90;;;;;;4968915;28;20214;-73
2022/11/27 00:07:24;;;;;;;20.57;11.33;;;7.60;99.90;;;;;;4968748;28;20325;-72
2022/11/27 00:09:51;;;;;;;19.20;10.83;;;7.50;99.90;;;;;;4949554;28;21246;-72
2022/11/27 00:12:20;;;;;;;16.00;10.83;;;7.60;99.90;;;;;;4949748;28;20757;-72
2022/11/27 00:14:47;;;;;;;22.70;11.57;;;7.50;99.90;;;;;;4960834;28;20199;-72
2022/11/27 00:17:14;;;;;;;19.43;11.27;;;7.50;99.90;;;;;;4968285;28;20211;-73
2022/11/27 00:19:41;;;;;;;19.90;11.20;;;7.50;99.90;;;;;;4968296;28;20463;-72
2022/11/27 00:22:08;;;;;;;19.97;11.23;;;7.40;99.90;;;;;;4968021;28;20851;-72
2022/11/27 00:24:35;;;;;;;19.63;11.77;;;7.50;99.90;;;;;;4968579;28;20301;-72
2022/11/27 00:27:02;;;;;;;18.93;11.10;;;7.40;99.90;;;;;;4968813;28;20302;-72
2022/11/27 00:29:30;;;;;;;25.90;11.10;;;7.40;99.90;;;;;;4968608;28;20261;-72
2022/11/27 00:31:57;;;;;;;16.43;10.30;;;7.40;99.90;;;;;;4967907;28;20207;-72
2022/11/27 00:34:24;;;;;;;17.13;10.97;;;7.40;99.90;;;;;;4968691;28;20217;-71
2022/11/27 00:36:51;;;;;;;22.30;11.70;;;7.40;99.90;;;;;;4968763;28;20210;-72
2022/11/27 00:39:18;;;;;;;23.00;11.27;;;7.40;99.90;;;;;;4968439;28;20797;-72
2022/11/27 00:41:45;;;;;;;13.63;10.23;;;7.40;99.90;;;;;;4969026;28;20273;-74
2022/11/27 00:44:13;;;;;;;14.27;10.40;;;7.40;99.90;;;;;;4968452;28;20322;-73
2022/11/27 00:46:41;;;;;;;13.57;9.43;;;7.30;99.90;;;;;;4968254;28;20722;-74
2022/11/27 00:49:16;;;;;;;16.70;10.00;;;7.30;99.90;;;;;;4968673;28;20293;-73
2022/11/27 00:51:43;;;;;;;17.37;11.20;;;7.30;99.90;;;;;;4968381;28;20222;-72
2022/11/27 00:54:10;;;;;;;16.30;10.77;;;7.30;99.90;;;;;;4968150;28;20304;-71
2022/11/27 00:56:39;;;;;;;18.20;10.67;;;7.30;99.90;;;;;;4968635;28;20306;-71
2022/11/27 00:59:06;;;;;;;14.37;10.13;;;7.30;99.90;;;;;;4968731;28;20297;-71
2022/11/27 01:01:35;;;;;;;15.63;10.70;;;7.30;99.90;;;;;;4968098;28;20229;-71
2022/11/27 01:04:05;;;;;;;15.77;10.50;;;7.30;99.90;;;;;;4968472;28;20301;-71
2022/11/27 01:06:32;;;;;;;18.33;11.20;;;7.30;99.90;;;;;;4968255;28;20325;-73
2022/11/27 01:08:59;;;;;;;16.83;10.87;;;7.30;99.90;;;;;;4968588;28;20238;-73
2022/11/27 01:11:28;;;;;;;16.10;11.10;;;7.30;99.90;;;;;;4983784;28;20321;-71
2022/11/27 01:13:57;;;;;;;19.20;11.57;;;7.30;99.90;;;;;;4972750;28;20327;-71
2022/11/27 01:16:25;;;;;;;19.33;11.50;;;7.30;99.90;;;;;;4968013;28;20639;-71
2022/11/27 01:18:56;;;;;;;16.27;10.67;;;7.30;99.90;;;;;;4968234;28;20246;-71
2022/11/27 01:21:25;;;;;;;15.90;11.47;;;7.30;99.90;;;;;;4968518;28;20214;-71
2022/11/27 01:23:54;;;;;;;19.17;11.10;;;7.30;99.90;;;;;;4968190;28;20314;-73
2022/11/27 01:26:22;;;;;;;12.93;10.20;;;7.30;99.90;;;;;;4968232;28;20334;-73
2022/11/27 01:28:52;;;;;;;16.77;10.30;;;7.20;99.90;;;;;;4967937;28;20245;-73
2022/11/27 01:31:21;;;;;;;16.50;10.53;;;7.30;99.90;;;;;;4968010;28;20313;-72
2022/11/27 01:33:51;;;;;;;16.90;10.87;;;7.30;99.90;;;;;;4968054;28;20206;-72
2022/11/27 01:36:18;;;;;;;23.70;14.37;;;7.20;99.90;;;;;;4968013;28;20306;-72
2022/11/27 01:38:47;;;;;;;15.73;11.63;;;7.20;99.90;;;;;;4967995;28;20249;-72
2022/11/27 01:41:15;;;;;;;18.37;11.53;;;7.20;99.90;;;;;;4967577;28;20214;-73
2022/11/27 01:43:45;;;;;;;20.30;10.97;;;7.20;99.90;;;;;;4969140;28;20219;-72
2022/11/27 01:46:36;;;;;;;16.40;11.00;;;7.20;99.90;;;;;;4970978;28;20684;-72
2022/11/27 01:49:24;;;;;;;21.97;11.87;;;7.30;99.90;;;;;;4962852;28;20209;-72
2022/11/27 01:51:56;;;;;;;17.87;12.20;;;7.30;99.90;;;;;;4971215;28;20228;-72
2022/11/27 01:54:26;;;;;;;25.47;12.17;;;7.30;99.90;;;;;;4971241;28;20374;-72
2022/11/27 01:56:58;;;;;;;19.47;11.27;;;7.30;99.90;;;;;;4971213;28;20733;-72
2022/11/27 01:59:25;;;;;;;20.00;13.00;;;7.40;99.90;;;;;;4970955;28;20661;-72
2022/11/27 02:01:52;;;;;;;21.80;13.70;;;7.30;99.90;;;;;;4971118;28;20225;-72
2022/11/27 02:04:19;;;;;;;23.00;13.10;;;7.30;99.90;;;;;;4970943;28;20306;-74
2022/11/27 02:06:46;;;;;;;19.23;12.13;;;7.30;99.90;;;;;;4971428;28;20795;-74
2022/11/27 02:09:13;;;;;;;14.30;11.47;;;7.20;99.90;;;;;;4971131;28;20768;-74
2022/11/27 02:11:49;;;;;;;22.77;12.70;;;7.30;99.90;;;;;;4971243;28;20242;-74
2022/11/27 02:14:23;;;;;;;15.43;10.70;;;7.20;99.90;;;;;;4977863;28;20304;-73
2022/11/27 02:16:58;;;;;;;16.53;10.00;;;7.20;99.90;;;;;;4971125;28;20198;-73
2022/11/27 02:19:34;;;;;;;14.30;9.70;;;7.20;99.90;;;;;;4971021;28;20203;-73
2022/11/27 02:22:06;;;;;;;12.90;9.57;;;7.20;99.90;;;;;;4971069;28;20680;-73
2022/11/27 02:24:50;;;;;;;15.73;9.50;;;7.20;99.90;;;;;;4970875;28;20643;-73
2022/11/27 02:27:54;;;;;;;16.27;9.73;;;7.20;99.90;;;;;;4961028;28;20195;-72
2022/11/27 02:30:22;;;;;;;18.67;9.40;;;7.20;99.90;;;;;;4970838;28;20322;-73
2022/11/27 02:32:54;;;;;;;14.30;8.80;;;7.20;99.90;;;;;;4970878;28;20298;-73
2022/11/27 02:35:27;;;;;;;12.10;8.73;;;7.20;99.90;;;;;;4971038;28;20310;-71
2022/11/27 02:37:59;;;;;;;13.77;8.97;;;7.20;99.90;;;;;;4970385;28;20206;-71
2022/11/27 02:40:31;;;;;;;11.27;8.77;;;7.10;99.90;;;;;;4970504;28;20199;-71
2022/11/27 02:43:01;;;;;;;14.47;9.10;;;7.10;99.90;;;;;;4970228;28;20590;-71
2022/11/27 02:45:35;;;;;;;13.37;8.53;;;7.10;99.90;;;;;;4970552;28;20239;-71
2022/11/27 02:48:03;;;;;;;12.93;9.17;;;7.10;99.90;;;;;;4970213;28;20808;-71
2022/11/27 02:50:32;;;;;;;12.73;8.60;;;7.10;99.90;;;;;;4970789;28;20244;-71
2022/11/27 02:53:03;;;;;;;13.40;9.23;;;7.10;99.90;;;;;;4970376;28;20342;-72
2022/11/27 02:55:33;;;;;;;15.40;9.10;;;7.10;99.90;;;;;;4969558;28;20215;-71
2022/11/27 02:58:06;;;;;;;14.03;8.53;;;7.10;99.90;;;;;;4970209;28;20207;-71
2022/11/27 03:00:36;;;;;;;16.97;9.60;;;7.10;99.90;;;;;;4969815;28;20199;-72
2022/11/27 03:03:06;;;;;;;14.90;9.40;;;7.10;99.90;;;;;;4969909;28;20745;-71
2022/11/27 03:05:37;;;;;;;14.40;9.47;;;7.10;99.90;;;;;;4969960;28;20325;-71
2022/11/27 03:08:07;;;;;;;16.13;9.07;;;7.10;99.90;;;;;;4969946;28;20686;-72
2022/11/27 03:10:40;;;;;;;12.57;9.00;;;7.10;99.90;;;;;;4969707;28;20219;-71
2022/11/27 03:13:06;;;;;;;14.87;8.90;;;7.00;99.90;;;;;;4969817;28;20286;-71
2022/11/27 03:15:43;;;;;;;16.87;9.33;;;7.00;99.90;;;;;;4969476;28;20235;-71
2022/11/27 03:18:18;;;;;;;11.10;8.50;;;7.00;99.90;;;;;;4970054;28;20195;-71
2022/11/27 03:20:52;;;;;;;14.27;8.80;;;7.00;99.90;;;;;;4969722;28;20202;-71
2022/11/27 03:23:19;;;;;;;12.33;8.70;;;7.00;99.90;;;;;;4969399;28;20299;-71
2022/11/27 03:25:46;;;;;;;15.20;9.20;;;7.00;99.90;;;;;;4969702;28;20302;-71
2022/11/27 03:28:14;;;;;;;13.43;8.00;;;7.00;99.90;;;;;;4969756;28;20293;-71
2022/11/27 03:30:42;;;;;;;13.57;9.17;;;7.00;99.90;;;;;;4969316;28;20239;-71
2022/11/27 03:33:09;;;;;;;11.40;7.90;;;6.90;99.90;;;;;;4969746;28;20221;-71
2022/11/27 03:35:37;;;;;;;9.27;8.23;;;7.00;99.90;;;;;;4969577;28;20250;-71
2022/11/27 03:38:04;;;;;;;12.53;8.60;;;6.90;99.90;;;;;;4969497;28;20297;-71
2022/11/27 03:40:44;;;;;;;10.40;7.57;;;6.90;99.90;;;;;;4968968;28;20793;-72
2022/11/27 03:43:16;;;;;;;14.00;8.07;;;6.90;99.90;;;;;;4969320;28;20725;-71
2022/11/27 03:45:53;;;;;;;11.53;8.57;;;6.90;99.90;;;;;;4969343;28;20302;-71
2022/11/27 03:48:29;;;;;;;13.10;7.83;;;6.90;99.90;;;;;;4969484;28;20730;-71
2022/11/27 03:51:07;;;;;;;11.43;8.30;;;6.90;99.90;;;;;;4969173;28;20328;-71
2022/11/27 03:53:44;;;;;;;11.27;8.30;;;6.90;99.90;;;;;;4969323;28;20203;-72
2022/11/27 03:56:18;;;;;;;14.77;8.40;;;6.90;99.90;;;;;;4969363;28;20297;-74
2022/11/27 03:58:47;;;;;;;14.67;8.07;;;6.90;99.90;;;;;;4949773;28;20200;-74
2022/11/27 04:01:19;;;;;;;8.97;8.00;;;6.90;99.90;;;;;;4949677;28;20313;-74
2022/11/27 04:03:46;;;;;;;14.90;8.73;;;6.90;99.90;;;;;;4955067;28;20282;-74
2022/11/27 04:06:13;;;;;;;16.63;8.83;;;6.90;99.90;;;;;;4968810;28;20267;-74
2022/11/27 04:08:40;;;;;;;13.80;8.90;;;6.90;99.90;;;;;;4969307;28;20639;-72
2022/11/27 04:11:07;;;;;;;15.07;9.07;;;6.80;99.90;;;;;;4969173;28;20233;-72
2022/11/27 04:13:35;;;;;;;12.13;8.53;;;6.90;99.90;;;;;;4968997;28;20211;-72
2022/11/27 04:16:03;;;;;;;12.83;8.40;;;6.80;99.90;;;;;;4968716;28;20199;-72
2022/11/27 04:18:31;;;;;;;16.33;9.13;;;6.80;99.90;;;;;;4968584;28;20644;-72
2022/11/27 04:21:00;;;;;;;13.60;8.37;;;6.80;99.90;;;;;;4969111;28;20206;-72
2022/11/27 04:23:27;;;;;;;14.40;8.80;;;6.80;99.90;;;;;;4968418;28;20662;-72
2022/11/27 04:25:54;;;;;;;10.97;8.63;;;6.80;99.90;;;;;;4968645;28;20207;-72
2022/11/27 04:28:21;;;;;;;12.90;9.30;;;6.70;99.90;;;;;;4968728;28;20645;-72
2022/11/27 04:30:51;;;;;;;14.37;9.00;;;6.70;99.90;;;;;;4968443;28;20321;-72
2022/11/27 04:33:18;;;;;;;13.40;9.07;;;6.60;99.90;;;;;;4968685;28;20314;-72
2022/11/27 04:35:47;;;;;;;11.53;9.67;;;6.60;99.90;;;;;;4968685;28;20634;-72
2022/11/27 04:38:14;;;;;;;13.23;9.07;;;6.60;99.90;;;;;;4968754;28;20293;-72
2022/11/27 04:40:40;;;;;;;14.13;9.20;;;6.50;99.90;;;;;;4968518;28;20206;-72
2022/11/27 04:43:07;;;;;;;13.27;8.53;;;6.50;99.90;;;;;;4968547;28;20227;-72
2022/11/27 04:45:34;;;;;;;15.73;9.97;;;6.50;99.90;;;;;;4968577;28;20321;-72
2022/11/27 04:48:01;;;;;;;13.17;9.57;;;6.50;99.90;;;;;;4968355;28;20301;-72
2022/11/27 04:50:28;;;;;;;11.33;9.00;;;6.50;99.90;;;;;;4968284;28;20270;-71
2022/11/27 04:52:56;;;;;;;17.00;10.67;;;6.50;99.90;;;;;;4968087;28;20780;-71
2022/11/27 04:55:23;;;;;;;12.77;9.57;;;6.40;99.90;;;;;;4968832;28;20214;-71
2022/11/27 04:57:50;;;;;;;14.10;9.73;;;6.40;99.90;;;;;;4968309;28;20748;-71
2022/11/27 05:00:18;;;;;;;10.63;8.93;;;6.40;99.90;;;;;;4968082;28;20207;-71
2022/11/27 05:02:45;;;;;;;14.87;10.40;;;6.40;99.90;;;;;;4968065;28;20701;-71
2022/11/27 05:05:12;;;;;;;17.00;9.97;;;6.40;99.90;;;;;;4968411;28;20717;-71
2022/11/27 05:07:39;;;;;;;14.60;9.30;;;6.40;99.90;;;;;;4967940;28;20338;-73
2022/11/27 05:10:09;;;;;;;12.87;9.43;;;6.30;99.90;;;;;;4968441;28;20213;-72
2022/11/27 05:12:35;;;;;;;14.40;8.90;;;6.30;99.90;;;;;;4968557;28;20234;-72
2022/11/27 05:15:02;;;;;;;13.77;9.30;;;6.30;99.90;;;;;;4968253;28;20314;-72
2022/11/27 05:17:29;;;;;;;12.33;9.03;;;6.30;99.90;;;;;;4967898;28;20298;-71
2022/11/27 05:19:56;;;;;;;12.17;9.33;;;6.30;99.90;;;;;;4971133;28;20743;-71
2022/11/27 05:22:23;;;;;;;12.20;9.30;;;6.20;99.90;;;;;;4971678;28;20301;-71
2022/11/27 05:24:50;;;;;;;16.43;9.90;;;6.20;99.90;;;;;;4971905;28;20214;-71
2022/11/27 05:27:18;;;;;;;18.77;10.60;;;6.20;99.90;;;;;;4972096;28;20298;-70
2022/11/27 05:29:45;;;;;;;11.77;9.47;;;6.20;99.90;;;;;;4971613;28;20207;-71
2022/11/27 05:32:12;;;;;;;13.70;9.13;;;6.10;99.90;;;;;;4971460;28;20239;-72
2022/11/27 05:34:39;;;;;;;12.80;9.07;;;6.10;99.90;;;;;;4971895;28;20215;-72
2022/11/27 05:37:06;;;;;;;12.43;9.30;;;6.10;99.90;;;;;;4971791;28;20761;-72
2022/11/27 05:39:33;;;;;;;13.73;10.17;;;6.10;99.90;;;;;;4971758;28;20215;-71
2022/11/27 05:42:00;;;;;;;12.30;10.07;;;6.00;99.90;;;;;;4971530;28;20649;-71
2022/11/27 05:44:28;;;;;;;12.23;9.80;;;6.00;99.90;;;;;;4971331;28;20579;-71
2022/11/27 05:46:55;;;;;;;13.20;9.77;;;6.00;99.90;;;;;;4970955;28;20746;-71
2022/11/27 05:49:22;;;;;;;12.13;10.03;;;6.00;99.90;;;;;;4971699;28;20214;-71
2022/11/27 05:51:49;;;;;;;14.13;9.67;;;5.90;99.90;;;;;;4971396;28;20444;-71
2022/11/27 05:54:16;;;;;;;13.80;9.67;;;5.90;99.90;;;;;;4971319;28;20387;-71
2022/11/27 05:56:43;;;;;;;15.37;10.10;;;5.80;99.90;;;;;;4971484;28;20294;-71
2022/11/27 05:59:11;;;;;;;15.37;10.30;;;5.80;99.90;;;;;;4971506;28;20638;-71
2022/11/27 06:01:39;;;;;;;16.20;9.57;;;5.80;99.90;;;;;;4970905;28;20668;-71
2022/11/27 06:04:06;;;;;;;11.33;9.13;;;5.80;99.90;;;;;;4971162;28;20325;-72
2022/11/27 06:06:33;;;;;;;12.73;9.50;;;5.80;99.90;;;;;;4970898;28;20334;-72
2022/11/27 06:09:00;;;;;;;15.60;10.00;;;5.80;99.90;;;;;;4971062;28;20737;-72
2022/11/27 06:11:27;;;;;;;12.37;9.53;;;5.80;99.90;;;;;;4971208;28;20231;-72
2022/11/27 06:13:54;;;;;;;12.43;8.83;;;5.70;99.90;;;;;;4971317;28;20217;-72
2022/11/27 06:16:23;;;;;;;13.07;9.67;;;5.70;99.90;;;;;;4970761;28;20318;-72
2022/11/27 06:18:52;;;;;;;12.43;9.40;;;5.70;99.90;;;;;;4970955;28;20289;-72
2022/11/27 06:21:20;;;;;;;16.00;9.77;;;5.60;99.90;;;;;;4971081;28;20210;-72
2022/11/27 06:23:48;;;;;;;15.73;9.93;;;5.60;99.90;;;;;;4970628;28;20238;-72
2022/11/27 06:26:17;;;;;;;10.53;9.03;;;5.60;99.90;;;;;;4971038;28;20421;-71
2022/11/27 06:28:44;;;;;;;14.30;9.37;;;5.60;99.90;;;;;;4970415;28;20297;-71
2022/11/27 06:31:13;;;;;;;11.50;9.43;;;5.60;99.90;;;;;;4969213;28;20213;-72
2022/11/27 06:33:40;;;;;;;14.67;9.17;;;5.60;99.90;;;;;;4970880;28;20305;-72
2022/11/27 06:36:09;;;;;;;13.30;9.87;;;5.60;99.90;;;;;;4970668;28;20213;-72
2022/11/27 06:38:37;;;;;;;17.40;9.53;;;5.60;99.90;;;;;;4970335;28;20221;-72
2022/11/27 06:41:07;;;;;;;13.43;8.83;;;5.50;99.90;;;;;;4960139;28;20286;-71
2022/11/27 06:43:35;;;;;;;11.00;8.40;;;5.50;99.90;;;;;;4970621;28;20245;-71
2022/11/27 06:46:03;;;;;;;10.50;8.60;;;5.50;99.90;;;;;;4970155;28;20848;-72
2022/11/27 06:48:30;;;;;;;13.73;9.70;;;5.50;99.90;;;;;;4970564;28;20325;-71
2022/11/27 06:51:00;;;;;;;14.10;9.77;;;5.50;99.90;;;;;;4970418;28;20312;-71
2022/11/27 06:53:29;;;;;;;12.53;8.70;;;5.50;99.90;;;;;;4970043;28;20719;-71
2022/11/27 06:55:56;;;;;;;13.70;9.43;;;5.50;99.90;;;;;;4970205;28;20310;-71
2022/11/27 06:58:23;;;;;;;11.27;8.87;;;5.50;99.90;;;;;;4969571;28;20210;-71
2022/11/27 07:00:50;;;;;;;9.63;8.63;;;5.50;99.90;;;;;;4959986;28;20223;-71
2022/11/27 07:03:17;;;;;;;11.47;8.33;;;5.50;99.90;;;;;;4959373;28;20199;-72
2022/11/27 07:05:44;;;;;;;15.23;9.00;;;5.50;99.90;;;;;;4963949;28;20286;-72
2022/11/27 07:08:10;;;;;;;14.50;9.30;;;5.50;99.90;;;;;;4966012;28;20310;-73
2022/11/27 07:10:39;;;;;;;14.83;8.73;;;5.50;99.90;;;;;;4959135;28;20730;-73
2022/11/27 07:13:05;;;;;;;13.43;9.20;;;5.40;99.90;;;;;;4958438;28;20230;-75
2022/11/27 07:15:33;;;;;;;13.57;9.40;;;5.40;99.90;;;;;;4953252;28;20294;-74
2022/11/27 07:18:00;;;;;;;9.70;8.63;;;5.40;99.90;;;;;;4964025;28;20203;-75
2022/11/27 07:20:27;;;;;;;12.37;9.47;;;5.40;99.90;;;;;;4963741;28;20242;-71
2022/11/27 07:22:53;;;;;;;10.67;9.03;;;5.40;99.90;;;;;;4966819;28;20225;-74
2022/11/27 07:25:20;;;;;;;13.43;8.73;;;5.40;99.90;;;;;;4957366;28;20321;-73
2022/11/27 07:27:48;;;;;;;11.07;8.53;;;5.40;99.90;;;;;;4965728;28;20301;-71
2022/11/27 07:30:16;;;;;;;10.83;8.70;;;5.40;99.90;;;;;;4965818;28;20297;-71
2022/11/27 07:32:43;;;;;;;12.57;8.80;;;5.40;99.90;;;;;;4963584;28;20239;-71
2022/11/27 07:35:10;;;;;;;9.97;8.80;;;5.40;99.90;;;;;;4961142;28;20203;-71
2022/11/27 07:37:37;;;;;;;10.90;8.80;;;5.40;99.90;;;;;;4957996;28;20199;-71
2022/11/27 07:40:04;;;;;;;13.87;9.57;;;5.30;99.90;;;;;;4960481;28;20205;-71
2022/11/27 07:42:31;;;;;;;13.57;8.77;;;5.30;99.90;;;;;;4960158;28;20305;-71
2022/11/27 07:44:59;;;;;;;9.43;8.13;;;5.30;99.90;;;;;;4959875;28;20678;-71
2022/11/27 07:47:26;;;;;;;12.60;8.07;;;5.30;99.90;;;;;;4958309;28;20287;-71
2022/11/27 07:49:54;;;;;;;10.23;8.13;;;5.30;99.90;;;;;;4959063;28;20612;-71
2022/11/27 07:52:21;;;;;;;12.77;8.77;;;5.30;99.90;;;;;;4957632;28;20598;-71
2022/11/27 07:54:48;;;;;;;13.83;8.90;;;5.30;99.90;;;;;;4957638;28;20635;-71
2022/11/27 07:57:15;;;;;;;11.63;9.00;;;5.30;99.90;;;;;;4960052;28;20286;-70
2022/11/27 07:59:41;;;;;;;13.83;8.70;;;5.30;99.90;;;;;;4961043;28;20286;-70
2022/11/27 08:02:12;;;;;;;11.53;8.33;;;5.30;99.90;;;;;;4962436;28;20587;-70
2022/11/27 08:04:39;;;;;;;11.37;8.27;;;5.40;99.90;;;;;;4960495;28;20282;-70
2022/11/27 08:07:06;;;;;;;11.77;9.07;;;5.40;99.90;;;;;;4960479;28;20290;-70
2022/11/27 08:09:32;;;;;;;11.40;8.73;;;5.30;99.90;;;;;;4965794;28;20293;-71
2022/11/27 08:12:00;;;;;;;11.73;8.40;;;5.30;99.90;;;;;;4967711;28;20326;-70
2022/11/27 08:14:27;;;;;;;11.30;8.30;;;5.40;99.90;;;;;;4966703;28;20350;-70
2022/11/27 08:16:53;;;;;;;13.47;8.03;;;5.40;99.90;;;;;;4967311;28;20307;-70
2022/11/27 08:19:22;;;;;;;9.90;7.90;;;5.50;99.90;;;;;;4967264;28;20207;-70
2022/11/27 08:21:49;;;;;;;10.60;8.60;;;5.50;99.90;;;;;;4959485;28;20207;-70
2022/11/27 08:24:16;;;;;;;13.50;8.90;;;5.60;99.90;;;;;;4961241;28;20293;-71
2022/11/27 08:26:43;;;;;;;11.80;8.20;;;5.60;99.90;;;;;;4966463;28;20693;-70
2022/11/27 08:29:12;;;;;;;11.27;8.73;;;5.70;99.90;;;;;;4966910;28;20206;-70
2022/11/27 08:31:39;;;;;;;9.63;8.10;;;5.80;99.90;;;;;;4965846;28;20242;-70
2022/11/27 08:34:06;;;;;;;10.27;8.23;;;5.90;99.90;;;;;;4966472;28;20237;-70
2022/11/27 08:36:34;;;;;;;10.83;8.73;;;5.90;99.90;;;;;;4966679;28;20301;-70
2022/11/27 08:39:01;;;;;;;9.43;7.57;;;6.00;99.90;;;;;;4966899;28;20221;-70
2022/11/27 08:41:28;;;;;;;9.33;7.47;;;6.00;99.90;;;;;;4966381;28;20203;-70
2022/11/27 08:43:55;;;;;;;11.43;7.97;;;6.00;99.90;;;;;;4966432;28;20238;-69
2022/11/27 08:46:22;;;;;;;10.90;7.50;;;6.10;99.90;;;;;;4966353;28;20207;-70
2022/11/27 08:48:49;;;;;;;8.87;7.97;;;6.10;99.90;;;;;;4966341;28;20297;-70
2022/11/27 08:51:16;;;;;;;12.37;7.90;;;6.20;99.90;;;;;;4966313;28;20213;-70
2022/11/27 08:53:45;;;;;;;9.30;7.53;;;6.30;99.90;;;;;;4967787;28;20293;-70
2022/11/27 08:56:15;;;;;;;8.70;7.30;;;6.30;99.90;;;;;;4970846;28;20220;-70
2022/11/27 08:58:42;;;;;;;9.13;7.37;;;6.40;99.90;;;;;;4970917;28;20194;-70
2022/11/27 09:01:11;;;;;;;10.10;7.43;;;6.40;99.90;;;;;;4970069;28;21085;-70
2022/11/27 09:03:38;;;;;;;8.00;7.17;;;6.50;99.90;;;;;;4970188;28;20211;-70
2022/11/27 09:06:08;;;;;;;9.70;7.03;;;6.50;99.90;;;;;;4969308;28;20238;-70
2022/11/27 09:08:34;;;;;;;14.67;7.13;;;6.60;99.90;;;;;;4970215;28;20650;-70
2022/11/27 09:11:04;;;;;;;7.77;6.97;;;6.70;99.90;;;;;;4970391;28;20215;-70
2022/11/27 09:13:31;;;;;;;12.60;8.07;;;6.70;99.90;;;;;;4970315;28;20242;-70
2022/11/27 09:15:58;;;;;;;9.37;7.30;;;6.80;99.90;;;;;;4970039;28;20740;-70
2022/11/27 09:18:26;;;;;;;7.93;7.03;;;6.80;99.90;;;;;;4970165;28;20246;-71
2022/11/27 09:20:57;;;;;;;7.10;6.40;;;6.90;99.90;;;;;;4970256;28;20211;-71
2022/11/27 09:23:24;;;;;;;10.90;7.83;;;6.90;99.90;;;;;;4969879;28;20210;-71
2022/11/27 09:25:51;;;;;;;7.70;6.40;;;7.00;99.90;;;;;;4969416;28;20270;-70
2022/11/27 09:28:20;;;;;;;8.20;6.53;;;7.00;99.90;;;;;;4969712;28;20215;-71
2022/11/27 09:30:47;;;;;;;7.73;6.93;;;7.10;99.90;;;;;;4969256;28;20211;-71
2022/11/27 09:33:13;;;;;;;7.63;6.63;;;7.10;99.90;;;;;;4969565;28;20796;-71
2022/11/27 09:35:40;;;;;;;8.27;6.77;;;7.20;99.90;;;;;;4969597;28;20685;-71
2022/11/27 09:38:07;;;;;;;8.10;6.83;;;7.30;99.90;;;;;;4970115;28;20757;-71
2022/11/27 09:40:34;;;;;;;7.00;6.40;;;7.40;99.90;;;;;;4970268;28;20700;-71
2022/11/27 09:43:08;;;;;;;9.83;6.97;;;7.40;99.90;;;;;;4970104;28;20242;-71
2022/11/27 09:45:43;;;;;;;7.20;6.50;;;7.50;99.90;;;;;;4969698;28;20199;-72
2022/11/27 09:48:16;;;;;;;9.27;6.33;;;7.60;99.90;;;;;;4969817;28;20195;-71
2022/11/27 09:50:49;;;;;;;7.27;6.53;;;7.60;99.90;;;;;;4969114;28;20210;-71
2022/11/27 09:53:24;;;;;;;9.00;6.80;;;7.70;99.90;;;;;;4968811;28;20632;-71
2022/11/27 09:55:55;;;;;;;9.40;6.50;;;7.70;99.90;;;;;;4968903;28;20195;-71
2022/11/27 09:58:35;;;;;;;8.97;6.93;;;7.70;99.90;;;;;;4969485;28;20203;-72
2022/11/27 10:01:11;;;;;;;6.87;6.20;;;7.70;99.90;;;;;;4968784;28;20804;-72
2022/11/27 10:03:41;;;;;;;8.87;6.80;;;7.70;99.90;;;;;;4960809;28;20578;-72
2022/11/27 10:06:20;;;;;;;9.23;6.47;;;7.80;99.90;;;;;;4968548;28;20239;-72
2022/11/27 10:08:55;;;;;;;8.03;6.47;;;7.90;99.90;;;;;;4968997;28;20381;-72
2022/11/27 10:11:30;;;;;;;7.47;6.27;;;7.90;99.90;;;;;;4969051;28;20232;-72
2022/11/27 10:14:07;;;;;;;6.47;5.87;;;7.90;99.90;;;;;;4969015;28;20254;-72
2022/11/27 10:16:40;;;;;;;9.83;6.13;;;8.00;99.90;;;;;;4949587;28;20209;-72
2022/11/27 10:19:26;;;;;;;9.60;5.60;;;8.10;99.90;;;;;;4965194;28;20203;-72
2022/11/27 10:21:58;;;;;;;9.07;6.30;;;8.10;99.90;;;;;;4968867;28;20213;-72
2022/11/27 10:24:35;;;;;;;7.03;5.63;;;8.20;99.90;;;;;;4968917;28;20222;-72
2022/11/27 10:27:09;;;;;;;7.00;5.80;;;8.40;99.90;;;;;;4968942;28;20290;-72
2022/11/27 10:29:39;;;;;;;6.30;5.80;;;8.40;99.90;;;;;;4968507;28;20190;-72
2022/11/27 10:32:13;;;;;;;7.07;5.80;;;8.50;99.90;;;;;;4968413;28;20294;-72
2022/11/27 10:34:44;;;;;;;6.57;5.67;;;8.60;99.90;;;;;;4968685;28;20203;-72
2022/11/27 10:37:18;;;;;;;7.20;5.80;;;8.70;99.90;;;;;;4968327;28;20294;-72
2022/11/27 10:39:50;;;;;;;6.03;5.40;;;8.80;99.90;;;;;;4949283;28;20273;-72
2022/11/27 10:42:24;;;;;;;5.90;5.37;;;8.90;99.90;;;;;;4956534;28;20227;-72
2022/11/27 10:44:54;;;;;;;5.97;5.47;;;8.90;99.90;;;;;;4948802;28;20724;-72
2022/11/27 10:47:23;;;;;;;6.27;5.67;;;9.00;99.90;;;;;;4949349;28;20298;-71
2022/11/27 10:49:50;;;;;;;6.63;5.60;;;9.10;99.90;;;;;;4948877;28;20219;-71
2022/11/27 10:52:19;;;;;;;7.53;5.53;;;9.20;99.90;;;;;;4949156;28;20231;-71
2022/11/27 10:54:50;;;;;;;5.57;4.90;;;9.40;99.90;;;;;;4956734;28;20738;-72
2022/11/27 10:57:53;;;;;;;7.10;5.87;;;9.40;99.90;;;;;;4963534;28;20285;-73
2022/11/27 11:00:21;;;;;;;5.70;4.90;;;9.50;99.90;;;;;;4884303;29;20300;-71
2022/11/27 11:02:59;;;;;;;6.73;5.17;;;9.50;99.90;;;;;;4938214;28;20746;-74
2022/11/27 11:05:27;;;;;;;7.37;4.87;;;9.60;99.90;;;;;;4959433;28;20306;-74
2022/11/27 11:08:00;;;;;;;6.73;5.10;;;9.80;99.90;;;;;;4967408;28;20333;-74
2022/11/27 11:10:30;;;;;;;6.37;5.23;;;9.80;99.90;;;;;;4957246;28;20813;-74
2022/11/27 11:13:22;;;;;;;7.23;5.23;;;9.80;99.90;;;;;;4955906;28;20693;-74
2022/11/27 11:15:55;;;;;;;7.13;5.53;;;9.50;99.90;;;;;;4947765;28;20203;-73
2022/11/27 11:18:25;;;;;;;5.37;4.90;;;9.50;99.90;;;;;;4963262;28;20222;-74
2022/11/27 11:20:55;;;;;;;7.70;4.83;;;9.50;99.90;;;;;;4962030;28;20745;-73
2022/11/27 11:23:29;;;;;;;5.77;4.80;;;9.60;99.90;;;;;;4967756;28;20212;-73
2022/11/27 11:26:05;;;;;;;9.73;5.30;;;9.70;99.90;;;;;;4958254;28;20212;-73
2022/11/27 11:28:41;;;;;;;6.73;4.93;;;9.80;99.90;;;;;;4958259;28;20205;-74
2022/11/27 11:31:14;;;;;;;6.17;5.20;;;9.90;99.90;;;;;;4967385;28;20298;-74
2022/11/27 11:33:52;;;;;;;5.93;5.33;;;10.10;99.90;;;;;;4967253;28;20638;-74
2022/11/27 11:36:19;;;;;;;4.70;4.30;;;10.20;99.90;;;;;;4967545;28;20253;-73
2022/11/27 11:38:47;;;;;;;6.03;4.87;;;10.20;99.90;;;;;;4967289;28;20254;-74
2022/11/27 11:41:16;;;;;;;4.97;4.47;;;10.20;99.90;;;;;;4965673;28;20209;-74
2022/11/27 11:43:57;;;;;;;4.80;4.10;;;10.20;99.90;;;;;;4962250;28;20231;-77
2022/11/27 11:46:27;;;;;;;5.17;4.27;;;10.30;99.90;;;;;;4965326;28;20199;-73
2022/11/27 11:49:01;;;;;;;6.03;4.50;;;10.30;99.90;;;;;;4959265;28;20241;-74
2022/11/27 11:51:58;;;;;;;4.93;3.83;;;10.40;99.90;;;;;;4961133;28;20206;-74
2022/11/27 11:54:48;;;;;;;5.43;4.27;;;10.40;99.90;;;;;;4962150;28;20297;-74
2022/11/27 11:57:56;;;;;;;4.20;3.80;;;10.30;99.90;;;;;;4951147;28;20210;-73
2022/11/27 12:00:24;;;;;;;6.03;4.23;;;10.30;99.90;;;;;;4947830;29;20294;-74
2022/11/27 12:03:11;;;;;;;4.83;4.07;;;10.30;99.90;;;;;;4947101;28;20249;-73
2022/11/27 12:05:51;;;;;;;5.30;4.10;;;10.30;99.90;;;;;;4951435;28;20203;-73
2022/11/27 12:08:35;;;;;;;5.53;4.10;;;10.20;99.90;;;;;;4966167;28;20207;-74
2022/11/27 12:11:09;;;;;;;4.67;4.10;;;10.10;99.90;;;;;;4966612;28;20669;-73
2022/11/27 12:13:49;;;;;;;4.57;4.10;;;9.90;99.90;;;;;;4966444;28;20326;-73
2022/11/27 12:16:27;;;;;;;6.80;4.40;;;9.80;99.90;;;;;;4964593;28;20244;-73
2022/11/27 12:19:08;;;;;;;6.17;4.67;;;9.70;99.90;;;;;;4962347;28;20241;-73
2022/11/27 12:21:46;;;;;;;4.57;4.17;;;9.70;99.90;;;;;;4966615;28;20294;-73
2022/11/27 12:24:31;;;;;;;5.47;4.30;;;9.60;99.90;;;;;;4947605;28;20290;-73
2022/11/27 12:27:11;;;;;;;7.03;4.43;;;9.70;99.90;;;;;;4957075;28;20289;-73
2022/11/27 12:29:58;;;;;;;6.50;4.50;;;9.90;99.90;;;;;;4966169;28;20209;-73
2022/11/27 12:32:56;;;;;;;7.00;4.50;;;10.10;99.90;;;;;;4967338;28;20310;-73
2022/11/27 12:35:31;;;;;;;4.80;4.37;;;10.20;99.90;;;;;;4963989;28;20217;-73
2022/11/27 12:38:16;;;;;;;6.37;4.10;;;10.40;99.90;;;;;;4965853;28;20214;-73
2022/11/27 12:40:56;;;;;;;7.47;4.30;;;10.60;99.90;;;;;;4966438;28;20285;-73
2022/11/27 12:43:25;;;;;;;4.33;3.90;;;10.70;99.90;;;;;;4951727;28;20319;-73
2022/11/27 12:45:57;;;;;;;5.47;4.77;;;10.80;99.90;;;;;;4946815;29;20389;-73
2022/11/27 12:48:28;;;;;;;8.27;5.00;;;10.90;99.90;;;;;;4946991;29;20225;-73
2022/11/27 12:50:58;;;;;;;6.10;4.47;;;10.90;99.90;;;;;;4961027;28;20669;-73
2022/11/27 12:53:34;;;;;;;7.23;4.93;;;10.90;99.90;;;;;;4965920;28;20701;-73
2022/11/27 12:56:09;;;;;;;7.60;4.60;;;10.90;99.90;;;;;;4966819;28;20198;-73
2022/11/27 12:58:39;;;;;;;5.87;4.83;;;10.80;99.90;;;;;;4966159;28;20217;-73
2022/11/27 13:01:11;;;;;;;5.37;4.37;;;10.70;99.90;;;;;;4965879;28;20225;-73
2022/11/27 13:03:46;;;;;;;8.77;4.87;;;10.60;99.90;;;;;;4966219;28;20564;-74